sensor_id;sensor_type;location;lat;lon;timestamp;temperature;humidity
20759;DHT22;10539;53.686;9.158;2022-10-26T00:01:05;12.90;99.90
20759;DHT22;10539;53.686;9.158;2022-10-26T00:03:33;12.90;99.90
20759;DHT22;10539;53.686;9.158;2022-10-26T00:06:19;13.00;99.90
20759;DHT22;10539;53.686;9.158;2022-10-26T00:08:45;13.00;99.90
20759;DHT22;10539;53.686;9.158;2022-10-26T00:11:11;13.00;99.90
20759;DHT22;10539;53.686;9.158;2022-10-26T00:13:38;12.90;99.90
20759;DHT22;10539;53.686;9.158;2022-10-26T00:16:09;12.90;99.90
20759;DHT22;10539;53.686;9.158;2022-10-26T00:18:35;12.90;99.90
20759;DHT22;10539;53.686;9.158;2022-10-26T00:21:05;12.80;99.90
20759;DHT22;10539;53.686;9.158;2022-10-26T00:23:31;12.80;99.90
20759;DHT22;10539;53.686;9.158;2022-10-26T00:25:58;12.80;99.90
20759;DHT22;10539;53.686;9.158;2022-10-26T00:28:24;12.70;99.90
20759;DHT22;10539;53.686;9.158;2022-10-26T00:30:49;12.70;99.90
20759;DHT22;10539;53.686;9.158;2022-10-26T00:33:15;12.70;99.90
20759;DHT22;10539;53.686;9.158;2022-10-26T00:35:41;12.60;99.90
20759;DHT22;10539;53.686;9.158;2022-10-26T00:38:08;12.50;99.90
20759;DHT22;10539;53.686;9.158;2022-10-26T00:40:34;12.50;99.90
20759;DHT22;10539;53.686;9.158;2022-10-26T00:42:59;12.40;99.90
20759;DHT22;10539;53.686;9.158;2022-10-26T00:45:28;12.40;99.90
20759;DHT22;10539;53.686;9.158;2022-10-26T00:48:04;12.30;99.90
20759;DHT22;10539;53.686;9.158;2022-10-26T00:50:39;12.30;99.90
20759;DHT22;10539;53.686;9.158;2022-10-26T00:53:07;12.30;99.90
20759;DHT22;10539;53.686;9.158;2022-10-26T00:55:36;12.30;99.90
20759;DHT22;10539;53.686;9.158;2022-10-26T00:58:04;12.30;99.90
20759;DHT22;10539;53.686;9.158;2022-10-26T01:00:30;12.30;99.90
20759;DHT22;10539;53.686;9.158;2022-10-26T01:02:58;12.30;99.90
20759;DHT22;10539;53.686;9.158;2022-10-26T01:05:25;12.30;99.90
20759;DHT22;10539;53.686;9.158;2022-10-26T01:07:52;12.30;99.90
20759;DHT22;10539;53.686;9.158;2022-10-26T01:10:18;12.30;99.90
20759;DHT22;10539;53.686;9.158;2022-10-26T01:12:45;12.30;99.90
20759;DHT22;10539;53.686;9.158;2022-10-26T01:15:12;12.30;99.90
20759;DHT22;10539;53.686;9.158;2022-10-26T01:17:55;12.30;99.90
20759;DHT22;10539;53.686;9.158;2022-10-26T01:20:31;12.30;99.90
20759;DHT22;10539;53.686;9.158;2022-10-26T01:31:28;12.30;99.90
20759;DHT22;10539;53.686;9.158;2022-10-26T01:34:27;12.40;99.90
20759;DHT22;10539;53.686;9.158;2022-10-26T01:36:57;12.40;99.90
20759;DHT22;10539;53.686;9.158;2022-10-26T01:39:43;12.40;99.90
20759;DHT22;10539;53.686;9.158;2022-10-26T01:42:11;12.30;99.90
20759;DHT22;10539;53.686;9.158;2022-10-26T01:44:42;12.30;99.90
20759;DHT22;10539;53.686;9.158;2022-10-26T01:47:12;12.20;99.90
20759;DHT22;10539;53.686;9.158;2022-10-26T01:49:42;12.20;99.90
20759;DHT22;10539;53.686;9.158;2022-10-26T01:52:09;12.10;99.90
20759;DHT22;10539;53.686;9.158;2022-10-26T01:54:36;12.10;99.90
20759;DHT22;10539;53.686;9.158;2022-10-26T01:57:08;12.00;99.90
20759;DHT22;10539;53.686;9.158;2022-10-26T02:02:28;11.90;99.90
20759;DHT22;10539;53.686;9.158;2022-10-26T02:13:17;11.80;99.90
20759;DHT22;10539;53.686;9.158;2022-10-26T02:20:57;11.80;99.90
20759;DHT22;10539;53.686;9.158;2022-10-26T02:23:24;11.70;99.90
20759;DHT22;10539;53.686;9.158;2022-10-26T02:25:54;11.70;99.90
20759;DHT22;10539;53.686;9.158;2022-10-26T02:28:27;11.70;99.90
20759;DHT22;10539;53.686;9.158;2022-10-26T02:30:56;11.70;99.90
20759;DHT22;10539;53.686;9.158;2022-10-26T02:33:24;11.70;99.90
20759;DHT22;10539;53.686;9.158;2022-10-26T02:35:52;11.70;99.90
20759;DHT22;10539;53.686;9.158;2022-10-26T02:38:20;11.70;99.90
20759;DHT22;10539;53.686;9.158;2022-10-26T02:40:49;11.70;99.90
20759;DHT22;10539;53.686;9.158;2022-10-26T02:43:17;11.70;99.90
20759;DHT22;10539;53.686;9.158;2022-10-26T02:45:51;11.60;99.90
20759;DHT22;10539;53.686;9.158;2022-10-26T02:48:17;11.60;99.90
20759;DHT22;10539;53.686;9.158;2022-10-26T02:50:53;11.60;99.90
20759;DHT22;10539;53.686;9.158;2022-10-26T02:53:38;11.60;99.90
20759;DHT22;10539;53.686;9.158;2022-10-26T02:56:39;11.60;99.90
20759;DHT22;10539;53.686;9.158;2022-10-26T02:59:04;11.60;99.90
20759;DHT22;10539;53.686;9.158;2022-10-26T03:01:32;11.60;99.90
20759;DHT22;10539;53.686;9.158;2022-10-26T03:03:59;11.50;99.90
20759;DHT22;10539;53.686;9.158;2022-10-26T03:06:25;11.50;99.90
20759;DHT22;10539;53.686;9.158;2022-10-26T03:08:51;11.50;99.90
20759;DHT22;10539;53.686;9.158;2022-10-26T03:11:17;11.50;99.90
20759;DHT22;10539;53.686;9.158;2022-10-26T03:13:43;11.50;99.90
20759;DHT22;10539;53.686;9.158;2022-10-26T03:16:10;11.50;99.90
20759;DHT22;10539;53.686;9.158;2022-10-26T03:18:36;11.50;99.90
20759;DHT22;10539;53.686;9.158;2022-10-26T03:21:01;11.50;99.90
20759;DHT22;10539;53.686;9.158;2022-10-26T03:23:28;11.40;99.90
20759;DHT22;10539;53.686;9.158;2022-10-26T03:25:59;11.50;99.90
20759;DHT22;10539;53.686;9.158;2022-10-26T03:28:25;11.40;99.90
20759;DHT22;10539;53.686;9.158;2022-10-26T03:30:51;11.40;99.90
20759;DHT22;10539;53.686;9.158;2022-10-26T03:33:17;11.40;99.90
20759;DHT22;10539;53.686;9.158;2022-10-26T03:35:43;11.40;99.90
20759;DHT22;10539;53.686;9.158;2022-10-26T03:38:08;11.40;99.90
20759;DHT22;10539;53.686;9.158;2022-10-26T03:40:35;11.40;99.90
20759;DHT22;10539;53.686;9.158;2022-10-26T03:43:02;11.50;99.90
20759;DHT22;10539;53.686;9.158;2022-10-26T03:45:27;11.50;99.90
20759;DHT22;10539;53.686;9.158;2022-10-26T03:47:53;11.50;99.90
20759;DHT22;10539;53.686;9.158;2022-10-26T03:50:21;11.50;99.90
20759;DHT22;10539;53.686;9.158;2022-10-26T03:52:47;11.50;99.90
20759;DHT22;10539;53.686;9.158;2022-10-26T03:55:14;11.50;99.90
20759;DHT22;10539;53.686;9.158;2022-10-26T03:57:41;11.40;99.90
20759;DHT22;10539;53.686;9.158;2022-10-26T04:00:12;11.40;99.90
20759;DHT22;10539;53.686;9.158;2022-10-26T04:02:40;11.40;99.90
20759;DHT22;10539;53.686;9.158;2022-10-26T04:05:06;11.40;99.90
20759;DHT22;10539;53.686;9.158;2022-10-26T04:07:32;11.40;99.90
20759;DHT22;10539;53.686;9.158;2022-10-26T04:09:58;11.40;99.90
20759;DHT22;10539;53.686;9.158;2022-10-26T04:12:24;11.40;99.90
20759;DHT22;10539;53.686;9.158;2022-10-26T04:14:50;11.30;99.90
20759;DHT22;10539;53.686;9.158;2022-10-26T04:17:16;11.30;99.90
20759;DHT22;10539;53.686;9.158;2022-10-26T04:19:42;11.30;99.90
20759;DHT22;10539;53.686;9.158;2022-10-26T04:22:07;11.30;99.90
20759;DHT22;10539;53.686;9.158;2022-10-26T04:24:33;11.30;99.90
20759;DHT22;10539;53.686;9.158;2022-10-26T04:26:59;11.30;99.90
20759;DHT22;10539;53.686;9.158;2022-10-26T04:29:25;11.30;99.90
20759;DHT22;10539;53.686;9.158;2022-10-26T04:31:50;11.30;99.90
20759;DHT22;10539;53.686;9.158;2022-10-26T04:34:16;11.30;99.90
20759;DHT22;10539;53.686;9.158;2022-10-26T04:36:42;11.20;99.90
20759;DHT22;10539;53.686;9.158;2022-10-26T04:39:07;11.20;99.90
20759;DHT22;10539;53.686;9.158;2022-10-26T04:41:33;11.20;99.90
20759;DHT22;10539;53.686;9.158;2022-10-26T04:43:58;11.20;99.90
20759;DHT22;10539;53.686;9.158;2022-10-26T04:46:24;11.10;99.90
20759;DHT22;10539;53.686;9.158;2022-10-26T04:48:50;11.10;99.90
20759;DHT22;10539;53.686;9.158;2022-10-26T04:51:16;11.10;99.90
20759;DHT22;10539;53.686;9.158;2022-10-26T04:53:41;11.10;99.90
20759;DHT22;10539;53.686;9.158;2022-10-26T04:56:07;11.10;99.90
20759;DHT22;10539;53.686;9.158;2022-10-26T04:58:33;11.10;99.90
20759;DHT22;10539;53.686;9.158;2022-10-26T05:01:00;11.10;99.90
20759;DHT22;10539;53.686;9.158;2022-10-26T05:03:26;11.10;99.90
20759;DHT22;10539;53.686;9.158;2022-10-26T05:05:52;11.10;99.90
20759;DHT22;10539;53.686;9.158;2022-10-26T05:08:18;11.10;99.90
20759;DHT22;10539;53.686;9.158;2022-10-26T05:10:50;11.10;99.90
20759;DHT22;10539;53.686;9.158;2022-10-26T05:13:16;11.00;99.90
20759;DHT22;10539;53.686;9.158;2022-10-26T05:15:42;11.10;99.90
20759;DHT22;10539;53.686;9.158;2022-10-26T05:18:08;11.10;99.90
20759;DHT22;10539;53.686;9.158;2022-10-26T05:20:34;11.00;99.90
20759;DHT22;10539;53.686;9.158;2022-10-26T05:23:03;11.00;99.90
20759;DHT22;10539;53.686;9.158;2022-10-26T05:25:30;11.10;99.90
20759;DHT22;10539;53.686;9.158;2022-10-26T05:27:58;11.00;99.90
20759;DHT22;10539;53.686;9.158;2022-10-26T05:30:24;11.00;99.90
20759;DHT22;10539;53.686;9.158;2022-10-26T05:32:56;11.00;99.90
20759;DHT22;10539;53.686;9.158;2022-10-26T05:35:23;11.00;99.90
20759;DHT22;10539;53.686;9.158;2022-10-26T05:37:49;11.00;99.90
20759;DHT22;10539;53.686;9.158;2022-10-26T05:40:14;11.00;99.90
20759;DHT22;10539;53.686;9.158;2022-10-26T05:42:41;11.00;99.90
20759;DHT22;10539;53.686;9.158;2022-10-26T05:45:07;11.00;99.90
20759;DHT22;10539;53.686;9.158;2022-10-26T05:47:38;11.00;99.90
20759;DHT22;10539;53.686;9.158;2022-10-26T05:50:04;11.00;99.90
20759;DHT22;10539;53.686;9.158;2022-10-26T05:52:30;11.00;99.90
20759;DHT22;10539;53.686;9.158;2022-10-26T05:55:02;11.00;99.90
20759;DHT22;10539;53.686;9.158;2022-10-26T05:57:28;11.00;99.90
20759;DHT22;10539;53.686;9.158;2022-10-26T05:59:54;11.00;99.90
20759;DHT22;10539;53.686;9.158;2022-10-26T06:05:20;10.90;99.90
20759;DHT22;10539;53.686;9.158;2022-10-26T06:07:47;10.90;99.90
20759;DHT22;10539;53.686;9.158;2022-10-26T06:10:15;10.90;99.90
20759;DHT22;10539;53.686;9.158;2022-10-26T06:12:41;10.90;99.90
20759;DHT22;10539;53.686;9.158;2022-10-26T06:15:11;10.90;99.90
20759;DHT22;10539;53.686;9.158;2022-10-26T06:17:53;10.90;99.90
20759;DHT22;10539;53.686;9.158;2022-10-26T06:28:45;10.90;99.90
20759;DHT22;10539;53.686;9.158;2022-10-26T06:31:13;10.90;99.90
20759;DHT22;10539;53.686;9.158;2022-10-26T06:33:39;10.90;99.90
20759;DHT22;10539;53.686;9.158;2022-10-26T06:36:21;11.00;99.90
20759;DHT22;10539;53.686;9.158;2022-10-26T06:38:49;11.00;99.90
20759;DHT22;10539;53.686;9.158;2022-10-26T06:41:17;10.90;99.90
20759;DHT22;10539;53.686;9.158;2022-10-26T06:43:44;10.90;99.90
20759;DHT22;10539;53.686;9.158;2022-10-26T06:46:21;10.90;99.90
20759;DHT22;10539;53.686;9.158;2022-10-26T06:48:53;10.90;99.90
20759;DHT22;10539;53.686;9.158;2022-10-26T06:51:22;10.90;99.90
20759;DHT22;10539;53.686;9.158;2022-10-26T06:53:58;10.90;99.90
20759;DHT22;10539;53.686;9.158;2022-10-26T06:56:25;10.90;99.90
20759;DHT22;10539;53.686;9.158;2022-10-26T06:58:52;10.90;99.90
20759;DHT22;10539;53.686;9.158;2022-10-26T07:01:20;10.90;99.90
20759;DHT22;10539;53.686;9.158;2022-10-26T07:03:46;10.90;99.90
20759;DHT22;10539;53.686;9.158;2022-10-26T07:06:12;11.00;99.90
20759;DHT22;10539;53.686;9.158;2022-10-26T07:08:37;11.00;99.90
20759;DHT22;10539;53.686;9.158;2022-10-26T07:11:03;11.10;99.90
20759;DHT22;10539;53.686;9.158;2022-10-26T07:13:30;11.10;99.90
20759;DHT22;10539;53.686;9.158;2022-10-26T07:15:56;11.10;99.90
20759;DHT22;10539;53.686;9.158;2022-10-26T07:18:21;11.10;99.90
20759;DHT22;10539;53.686;9.158;2022-10-26T07:20:47;11.10;99.90
20759;DHT22;10539;53.686;9.158;2022-10-26T07:23:13;11.10;99.90
20759;DHT22;10539;53.686;9.158;2022-10-26T07:25:40;11.20;99.90
20759;DHT22;10539;53.686;9.158;2022-10-26T07:28:08;11.30;99.90
20759;DHT22;10539;53.686;9.158;2022-10-26T07:30:35;11.30;99.90
20759;DHT22;10539;53.686;9.158;2022-10-26T07:33:07;11.30;99.90
20759;DHT22;10539;53.686;9.158;2022-10-26T07:35:34;11.30;99.90
20759;DHT22;10539;53.686;9.158;2022-10-26T07:38:00;11.30;99.90
20759;DHT22;10539;53.686;9.158;2022-10-26T07:40:26;11.40;99.90
20759;DHT22;10539;53.686;9.158;2022-10-26T07:42:55;11.40;99.90
20759;DHT22;10539;53.686;9.158;2022-10-26T07:45:20;11.40;99.90
20759;DHT22;10539;53.686;9.158;2022-10-26T07:47:46;11.40;99.90
20759;DHT22;10539;53.686;9.158;2022-10-26T07:50:14;11.50;99.90
20759;DHT22;10539;53.686;9.158;2022-10-26T07:52:39;11.50;99.90
20759;DHT22;10539;53.686;9.158;2022-10-26T07:55:08;11.50;99.90
20759;DHT22;10539;53.686;9.158;2022-10-26T07:57:34;11.60;99.90
20759;DHT22;10539;53.686;9.158;2022-10-26T08:00:00;11.60;99.90
20759;DHT22;10539;53.686;9.158;2022-10-26T08:02:26;11.70;99.90
20759;DHT22;10539;53.686;9.158;2022-10-26T08:04:51;11.70;99.90
20759;DHT22;10539;53.686;9.158;2022-10-26T08:07:17;11.80;99.90
20759;DHT22;10539;53.686;9.158;2022-10-26T08:09:43;11.90;99.90
20759;DHT22;10539;53.686;9.158;2022-10-26T08:12:08;12.00;99.90
20759;DHT22;10539;53.686;9.158;2022-10-26T08:14:35;12.00;99.90
20759;DHT22;10539;53.686;9.158;2022-10-26T08:17:01;12.00;99.90
20759;DHT22;10539;53.686;9.158;2022-10-26T08:19:26;12.10;99.90
20759;DHT22;10539;53.686;9.158;2022-10-26T08:21:52;12.10;99.90
20759;DHT22;10539;53.686;9.158;2022-10-26T08:24:18;12.20;99.90
20759;DHT22;10539;53.686;9.158;2022-10-26T08:26:44;12.30;99.90
20759;DHT22;10539;53.686;9.158;2022-10-26T08:29:09;12.30;99.90
20759;DHT22;10539;53.686;9.158;2022-10-26T08:31:35;12.40;99.90
20759;DHT22;10539;53.686;9.158;2022-10-26T08:34:01;12.40;99.90
20759;DHT22;10539;53.686;9.158;2022-10-26T08:36:28;12.50;99.90
20759;DHT22;10539;53.686;9.158;2022-10-26T08:38:54;12.60;99.90
20759;DHT22;10539;53.686;9.158;2022-10-26T08:46:40;12.80;99.90
20759;DHT22;10539;53.686;9.158;2022-10-26T08:49:21;12.90;99.90
20759;DHT22;10539;53.686;9.158;2022-10-26T08:51:52;13.00;99.90
20759;DHT22;10539;53.686;9.158;2022-10-26T08:54:32;13.10;99.90
20759;DHT22;10539;53.686;9.158;2022-10-26T08:57:02;13.20;99.90
20759;DHT22;10539;53.686;9.158;2022-10-26T08:59:59;13.30;99.90
20759;DHT22;10539;53.686;9.158;2022-10-26T09:02:26;13.40;99.90
20759;DHT22;10539;53.686;9.158;2022-10-26T09:04:53;13.50;99.90
20759;DHT22;10539;53.686;9.158;2022-10-26T09:07:34;13.70;99.90
20759;DHT22;10539;53.686;9.158;2022-10-26T09:10:23;13.80;99.90
20759;DHT22;10539;53.686;9.158;2022-10-26T09:15:36;14.10;99.90
20759;DHT22;10539;53.686;9.158;2022-10-26T09:20:36;14.30;99.90
20759;DHT22;10539;53.686;9.158;2022-10-26T09:25:39;14.50;99.90
20759;DHT22;10539;53.686;9.158;2022-10-26T09:28:15;14.60;99.90
20759;DHT22;10539;53.686;9.158;2022-10-26T09:30:44;14.60;99.90
20759;DHT22;10539;53.686;9.158;2022-10-26T09:33:19;14.70;99.90
20759;DHT22;10539;53.686;9.158;2022-10-26T09:35:50;14.80;99.90
20759;DHT22;10539;53.686;9.158;2022-10-26T09:38:31;14.80;99.90
20759;DHT22;10539;53.686;9.158;2022-10-26T09:41:43;14.90;99.90
20759;DHT22;10539;53.686;9.158;2022-10-26T09:49:37;15.10;99.90
20759;DHT22;10539;53.686;9.158;2022-10-26T09:52:06;15.10;99.90
20759;DHT22;10539;53.686;9.158;2022-10-26T09:54:32;15.10;99.90
20759;DHT22;10539;53.686;9.158;2022-10-26T09:56:59;15.20;99.90
20759;DHT22;10539;53.686;9.158;2022-10-26T09:59:27;15.20;99.90
20759;DHT22;10539;53.686;9.158;2022-10-26T10:01:54;15.20;99.90
20759;DHT22;10539;53.686;9.158;2022-10-26T10:04:21;15.30;99.90
20759;DHT22;10539;53.686;9.158;2022-10-26T10:06:50;15.40;99.90
20759;DHT22;10539;53.686;9.158;2022-10-26T10:09:18;15.40;99.90
20759;DHT22;10539;53.686;9.158;2022-10-26T10:11:56;15.50;99.90
20759;DHT22;10539;53.686;9.158;2022-10-26T10:14:28;15.50;99.90
20759;DHT22;10539;53.686;9.158;2022-10-26T10:16:57;15.60;99.90
20759;DHT22;10539;53.686;9.158;2022-10-26T10:21:54;15.70;99.90
20759;DHT22;10539;53.686;9.158;2022-10-26T10:24:35;15.70;99.90
20759;DHT22;10539;53.686;9.158;2022-10-26T10:27:14;15.70;99.90
20759;DHT22;10539;53.686;9.158;2022-10-26T10:32:16;15.80;99.90
20759;DHT22;10539;53.686;9.158;2022-10-26T10:34:46;15.90;99.90
20759;DHT22;10539;53.686;9.158;2022-10-26T10:37:26;15.90;99.90
20759;DHT22;10539;53.686;9.158;2022-10-26T10:40:00;15.90;99.90
20759;DHT22;10539;53.686;9.158;2022-10-26T10:42:30;16.00;99.90
20759;DHT22;10539;53.686;9.158;2022-10-26T10:44:57;16.00;99.90
20759;DHT22;10539;53.686;9.158;2022-10-26T10:47:26;16.10;99.90
20759;DHT22;10539;53.686;9.158;2022-10-26T10:50:16;16.10;99.90
20759;DHT22;10539;53.686;9.158;2022-10-26T10:52:44;16.20;99.90
20759;DHT22;10539;53.686;9.158;2022-10-26T11:00:11;16.30;99.90
20759;DHT22;10539;53.686;9.158;2022-10-26T11:02:52;16.40;99.90
20759;DHT22;10539;53.686;9.158;2022-10-26T11:08:37;16.60;99.90
20759;DHT22;10539;53.686;9.158;2022-10-26T11:11:14;16.60;99.90
20759;DHT22;10539;53.686;9.158;2022-10-26T11:16:41;16.70;99.90
20759;DHT22;10539;53.686;9.158;2022-10-26T11:19:39;16.80;99.90
20759;DHT22;10539;53.686;9.158;2022-10-26T11:22:11;16.80;99.90
20759;DHT22;10539;53.686;9.158;2022-10-26T11:24:48;16.90;99.90
20759;DHT22;10539;53.686;9.158;2022-10-26T11:27:35;16.90;99.90
20759;DHT22;10539;53.686;9.158;2022-10-26T11:30:17;16.90;99.90
20759;DHT22;10539;53.686;9.158;2022-10-26T11:33:05;17.00;99.90
20759;DHT22;10539;53.686;9.158;2022-10-26T11:41:08;17.10;99.90
20759;DHT22;10539;53.686;9.158;2022-10-26T11:43:39;17.20;99.90
20759;DHT22;10539;53.686;9.158;2022-10-26T11:54:33;17.40;99.90
20759;DHT22;10539;53.686;9.158;2022-10-26T11:57:01;17.40;99.90
20759;DHT22;10539;53.686;9.158;2022-10-26T11:59:30;17.40;99.90
20759;DHT22;10539;53.686;9.158;2022-10-26T12:04:30;17.60;99.90
20759;DHT22;10539;53.686;9.158;2022-10-26T12:07:00;17.70;99.90
20759;DHT22;10539;53.686;9.158;2022-10-26T12:09:31;17.70;99.90
20759;DHT22;10539;53.686;9.158;2022-10-26T12:12:06;17.80;99.90
20759;DHT22;10539;53.686;9.158;2022-10-26T12:14:48;17.80;99.90
20759;DHT22;10539;53.686;9.158;2022-10-26T12:17:28;17.80;99.90
20759;DHT22;10539;53.686;9.158;2022-10-26T12:20:23;17.90;99.90
20759;DHT22;10539;53.686;9.158;2022-10-26T12:22:52;17.90;99.90
20759;DHT22;10539;53.686;9.158;2022-10-26T12:25:20;17.90;99.90
20759;DHT22;10539;53.686;9.158;2022-10-26T12:43:38;17.90;99.90
20759;DHT22;10539;53.686;9.158;2022-10-26T12:56:41;18.00;99.90
20759;DHT22;10539;53.686;9.158;2022-10-26T13:07:24;18.10;99.90
20759;DHT22;10539;53.686;9.158;2022-10-26T13:12:21;18.20;99.90
20759;DHT22;10539;53.686;9.158;2022-10-26T13:15:00;18.20;99.90
20759;DHT22;10539;53.686;9.158;2022-10-26T13:17:28;18.30;99.90
20759;DHT22;10539;53.686;9.158;2022-10-26T13:19:58;18.30;99.90
20759;DHT22;10539;53.686;9.158;2022-10-26T13:22:24;18.30;99.90
20759;DHT22;10539;53.686;9.158;2022-10-26T13:25:17;18.30;99.90
20759;DHT22;10539;53.686;9.158;2022-10-26T13:27:40;18.30;99.90
20759;DHT22;10539;53.686;9.158;2022-10-26T13:30:21;18.30;99.90
20759;DHT22;10539;53.686;9.158;2022-10-26T13:33:00;18.30;99.90
20759;DHT22;10539;53.686;9.158;2022-10-26T13:35:27;18.30;99.90
20759;DHT22;10539;53.686;9.158;2022-10-26T13:37:54;18.30;99.90
20759;DHT22;10539;53.686;9.158;2022-10-26T13:40:24;18.30;99.90
20759;DHT22;10539;53.686;9.158;2022-10-26T13:42:55;18.30;99.90
20759;DHT22;10539;53.686;9.158;2022-10-26T13:45:27;18.30;99.90
20759;DHT22;10539;53.686;9.158;2022-10-26T13:48:06;18.40;99.90
20759;DHT22;10539;53.686;9.158;2022-10-26T13:50:45;18.40;99.90
20759;DHT22;10539;53.686;9.158;2022-10-26T13:53:39;18.40;99.90
20759;DHT22;10539;53.686;9.158;2022-10-26T13:56:28;18.50;99.90
20759;DHT22;10539;53.686;9.158;2022-10-26T13:59:01;18.50;99.90
20759;DHT22;10539;53.686;9.158;2022-10-26T14:01:28;18.50;99.90
20759;DHT22;10539;53.686;9.158;2022-10-26T14:03:55;18.50;99.90
20759;DHT22;10539;53.686;9.158;2022-10-26T14:06:35;18.50;99.90
20759;DHT22;10539;53.686;9.158;2022-10-26T14:09:04;18.60;99.90
20759;DHT22;10539;53.686;9.158;2022-10-26T14:11:52;18.60;99.90
20759;DHT22;10539;53.686;9.158;2022-10-26T14:16:47;18.50;99.90
20759;DHT22;10539;53.686;9.158;2022-10-26T14:19:29;18.50;99.90
20759;DHT22;10539;53.686;9.158;2022-10-26T14:21:56;18.50;99.90
20759;DHT22;10539;53.686;9.158;2022-10-26T14:26:56;18.50;99.90
20759;DHT22;10539;53.686;9.158;2022-10-26T14:29:23;18.40;99.90
20759;DHT22;10539;53.686;9.158;2022-10-26T14:31:50;18.40;99.90
20759;DHT22;10539;53.686;9.158;2022-10-26T14:34:17;18.40;99.90
20759;DHT22;10539;53.686;9.158;2022-10-26T14:36:51;18.30;99.90
20759;DHT22;10539;53.686;9.158;2022-10-26T14:39:41;18.30;99.90
20759;DHT22;10539;53.686;9.158;2022-10-26T14:42:16;18.30;99.90
20759;DHT22;10539;53.686;9.158;2022-10-26T14:44:47;18.30;99.90
20759;DHT22;10539;53.686;9.158;2022-10-26T14:47:22;18.20;99.90
20759;DHT22;10539;53.686;9.158;2022-10-26T14:49:48;18.20;99.90
20759;DHT22;10539;53.686;9.158;2022-10-26T14:52:26;18.10;99.90
20759;DHT22;10539;53.686;9.158;2022-10-26T14:55:14;18.10;99.90
20759;DHT22;10539;53.686;9.158;2022-10-26T14:57:42;18.10;99.90
20759;DHT22;10539;53.686;9.158;2022-10-26T15:00:23;18.10;99.90
20759;DHT22;10539;53.686;9.158;2022-10-26T15:02:54;18.00;99.90
20759;DHT22;10539;53.686;9.158;2022-10-26T15:05:32;18.00;99.90
20759;DHT22;10539;53.686;9.158;2022-10-26T15:07:59;18.00;99.90
20759;DHT22;10539;53.686;9.158;2022-10-26T15:15:35;18.00;99.90
20759;DHT22;10539;53.686;9.158;2022-10-26T15:18:01;18.00;99.90
20759;DHT22;10539;53.686;9.158;2022-10-26T15:20:29;17.90;99.90
20759;DHT22;10539;53.686;9.158;2022-10-26T15:22:58;17.90;99.90
20759;DHT22;10539;53.686;9.158;2022-10-26T15:25:26;17.80;99.90
20759;DHT22;10539;53.686;9.158;2022-10-26T15:27:53;17.80;99.90
20759;DHT22;10539;53.686;9.158;2022-10-26T15:30:24;17.80;99.90
20759;DHT22;10539;53.686;9.158;2022-10-26T15:32:54;17.80;99.90
20759;DHT22;10539;53.686;9.158;2022-10-26T15:35:29;17.80;99.90
20759;DHT22;10539;53.686;9.158;2022-10-26T15:37:56;17.80;99.90
20759;DHT22;10539;53.686;9.158;2022-10-26T15:40:23;17.80;99.90
20759;DHT22;10539;53.686;9.158;2022-10-26T15:42:51;17.80;99.90
20759;DHT22;10539;53.686;9.158;2022-10-26T15:45:29;17.80;99.90
20759;DHT22;10539;53.686;9.158;2022-10-26T15:47:58;17.70;99.90
20759;DHT22;10539;53.686;9.158;2022-10-26T15:50:27;17.70;99.90
20759;DHT22;10539;53.686;9.158;2022-10-26T15:52:59;17.70;99.90
20759;DHT22;10539;53.686;9.158;2022-10-26T15:55:27;17.70;99.90
20759;DHT22;10539;53.686;9.158;2022-10-26T15:57:53;17.60;99.90
20759;DHT22;10539;53.686;9.158;2022-10-26T16:00:19;17.60;99.90
20759;DHT22;10539;53.686;9.158;2022-10-26T16:02:46;17.60;99.90
20759;DHT22;10539;53.686;9.158;2022-10-26T16:05:13;17.60;99.90
20759;DHT22;10539;53.686;9.158;2022-10-26T16:07:41;17.60;99.90
20759;DHT22;10539;53.686;9.158;2022-10-26T16:10:13;17.50;99.90
20759;DHT22;10539;53.686;9.158;2022-10-26T16:12:40;17.50;99.90
20759;DHT22;10539;53.686;9.158;2022-10-26T16:15:06;17.50;99.90
20759;DHT22;10539;53.686;9.158;2022-10-26T16:17:32;17.50;99.90
20759;DHT22;10539;53.686;9.158;2022-10-26T16:19:58;17.40;99.90
20759;DHT22;10539;53.686;9.158;2022-10-26T16:22:24;17.40;99.90
20759;DHT22;10539;53.686;9.158;2022-10-26T16:24:50;17.30;99.90
20759;DHT22;10539;53.686;9.158;2022-10-26T16:27:16;17.30;99.90
20759;DHT22;10539;53.686;9.158;2022-10-26T16:29:42;17.20;99.90
20759;DHT22;10539;53.686;9.158;2022-10-26T16:32:08;17.10;99.90
20759;DHT22;10539;53.686;9.158;2022-10-26T16:34:34;17.10;99.90
20759;DHT22;10539;53.686;9.158;2022-10-26T16:37:00;17.00;99.90
20759;DHT22;10539;53.686;9.158;2022-10-26T16:39:25;17.00;99.90
20759;DHT22;10539;53.686;9.158;2022-10-26T16:41:51;17.00;99.90
20759;DHT22;10539;53.686;9.158;2022-10-26T16:44:17;17.00;99.90
20759;DHT22;10539;53.686;9.158;2022-10-26T16:46:43;17.00;99.90
20759;DHT22;10539;53.686;9.158;2022-10-26T16:49:09;17.00;99.90
20759;DHT22;10539;53.686;9.158;2022-10-26T16:51:35;17.00;99.90
20759;DHT22;10539;53.686;9.158;2022-10-26T16:54:00;17.00;99.90
20759;DHT22;10539;53.686;9.158;2022-10-26T16:56:28;17.00;99.90
20759;DHT22;10539;53.686;9.158;2022-10-26T16:58:54;17.00;99.90
20759;DHT22;10539;53.686;9.158;2022-10-26T17:01:21;17.10;99.90
20759;DHT22;10539;53.686;9.158;2022-10-26T17:03:48;17.10;99.90
20759;DHT22;10539;53.686;9.158;2022-10-26T17:06:15;17.10;99.90
20759;DHT22;10539;53.686;9.158;2022-10-26T17:08:41;17.00;99.90
20759;DHT22;10539;53.686;9.158;2022-10-26T17:11:13;17.00;99.90
20759;DHT22;10539;53.686;9.158;2022-10-26T17:13:40;17.00;99.90
20759;DHT22;10539;53.686;9.158;2022-10-26T17:18:35;16.90;99.90
20759;DHT22;10539;53.686;9.158;2022-10-26T17:21:01;16.90;99.90
20759;DHT22;10539;53.686;9.158;2022-10-26T17:23:27;16.90;99.90
20759;DHT22;10539;53.686;9.158;2022-10-26T17:25:52;16.90;99.90
20759;DHT22;10539;53.686;9.158;2022-10-26T17:28:18;16.90;99.90
20759;DHT22;10539;53.686;9.158;2022-10-26T17:30:44;16.80;99.90
20759;DHT22;10539;53.686;9.158;2022-10-26T17:33:11;16.80;99.90
20759;DHT22;10539;53.686;9.158;2022-10-26T17:35:37;16.80;99.90
20759;DHT22;10539;53.686;9.158;2022-10-26T17:38:03;16.80;99.90
20759;DHT22;10539;53.686;9.158;2022-10-26T17:40:30;16.80;99.90
20759;DHT22;10539;53.686;9.158;2022-10-26T17:42:57;16.80;99.90
20759;DHT22;10539;53.686;9.158;2022-10-26T17:45:23;16.80;99.90
20759;DHT22;10539;53.686;9.158;2022-10-26T17:47:49;16.70;99.90
20759;DHT22;10539;53.686;9.158;2022-10-26T17:50:15;16.70;99.90
20759;DHT22;10539;53.686;9.158;2022-10-26T17:52:41;16.70;99.90
20759;DHT22;10539;53.686;9.158;2022-10-26T17:55:07;16.70;99.90
20759;DHT22;10539;53.686;9.158;2022-10-26T17:57:32;16.80;99.90
20759;DHT22;10539;53.686;9.158;2022-10-26T17:59:58;16.80;99.90
20759;DHT22;10539;53.686;9.158;2022-10-26T18:02:24;16.80;99.90